Flight Track Log - Related Links

Times and Time Zones

All times are in EDT time to prevent confusion due to time zone crossing. See the CPZ5718 flight status page for this flight to view local times or setup timezone preferences in your user account.

Time Position Orientation Groundspeed Altitude Reporting Facility
EDT Latitude Longitude Course Direction KTS MPH feet Rate Location/Type
Mon 06:42:25 AM 42.7694 -73.8089 281° West 140 161 1,100  Level Boston Center
Mon 06:43:32 AM 42.8167 -73.8639 319° Northwest 228 262 2,800 2,080 Climbing Boston Center
Mon 06:44:55 AM 42.8717 -73.9642 307° West 261 300 6,300 2,685 Climbing Boston Center
Mon 06:45:00 AM 42.8422 -74.3860 283° West  Level FlightAware Approximate
Mon 06:45:55 AM 42.9164 -74.0419 308° West 296 341 9,200  Level Boston Center
Mon 06:46:00 AM 42.8677 -74.5344 324° Northwest  Level FlightAware Approximate
Mon 06:46:56 AM 42.9733 -74.1397 309° West 296 341 11,000  Level Boston Center
Mon 06:47:00 AM 42.9004 -74.6744 281° West  Level FlightAware Approximate
Mon 06:47:55 AM 43.0322 -74.2353 310° West 337 388 12,500  Level Boston Center
Mon 06:48:55 AM 43.1056 -74.3539 310° West 367 422 15,000 2,091 Climbing Boston Center
Mon 06:50:07 AM 43.1642 -74.4556 308° West 374 430 17,100 1,864 Climbing Boston Center
Mon 06:51:07 AM 43.2472 -74.5922 310° West 379 436 19,100 1,785 Climbing Boston Center
Mon 06:52:08 AM 43.3008 -74.7167 301° West 379 436 20,700 1,500 Climbing Boston Center
Mon 06:53:07 AM 43.2894 -74.8647 264° West 367 422 22,100 1,462 Climbing Boston Center
Mon 06:54:07 AM 43.2758 -75.0153 263° West 375 432 23,600 1,850 Climbing Boston Center
Mon 06:55:07 AM 43.2597 -75.1658 262° West 390 449 25,800 1,750 Climbing Boston Center
Mon 06:56:31 AM 43.2431 -75.3361 262° West 390 449 27,800 1,333 Climbing Boston Center
Mon 06:57:31 AM 43.2300 -75.5178 264° West 384 442 29,000 900 Climbing Boston Center
Mon 06:58:31 AM 43.2322 -75.6661 271° West 384 442 29,600 800 Climbing Boston Center
Mon 06:59:31 AM 43.2508 -75.8183 280° West 391 450 30,600 950 Climbing Boston Center
Mon 07:00:31 AM 43.2628 -75.9731 276° West 397 457 31,500 945 Climbing Boston Center
Mon 07:02:16 AM 43.2789 -76.2342 275° West 413 475 33,200 909 Climbing Cleveland Center
Mon 07:03:16 AM 43.2886 -76.3844 275° West 408 470 34,000 850 Climbing Cleveland Center
Mon 07:04:16 AM 43.2958 -76.5297 274° West 397 457 34,900 900 Climbing Cleveland Center
Mon 07:05:16 AM 43.3050 -76.6775 275° West 392 451 35,800 550 Climbing Cleveland Center
Mon 07:06:16 AM 43.3139 -76.8194 275° West 387 445 36,000 100 Climbing Cleveland Center
Mon 07:07:16 AM 43.3314 -76.9697 279° West 387 445 36,000  Level Cleveland Center
Mon 07:08:16 AM 43.3500 -77.1031 281° West 387 445 36,000  Level Cleveland Center
Mon 07:09:16 AM 43.3756 -77.2614 283° West 411 473 36,000  Level Cleveland Center
Mon 07:10:16 AM 43.4028 -77.4172 284° West 423 487 36,000  Level Cleveland Center
Mon 07:11:16 AM 43.4278 -77.5761 282° West 423 487 36,000  Level Cleveland Center
Mon 07:11:51 AM 43.4333 -77.6667 275° West 420 483 36,000  Level Toronto Center
Mon 07:12:51 AM 43.4500 -77.8167 279° West 420 483 36,000  Level Toronto Center
Mon 07:13:51 AM 43.4833 -77.9833 285° West 420 483 36,000  Level Toronto Center
Mon 07:14:51 AM 43.5000 -78.1333 279° West 420 483 36,000  Level Toronto Center
Mon 07:15:51 AM 43.5167 -78.3000 278° West 420 483 36,000  Level Toronto Center
Mon 07:16:51 AM 43.5333 -78.4333 280° West 430 495 36,000  Level Toronto Center
Mon 07:17:51 AM 43.5833 -78.6167 291° West 430 495 36,000  Level Toronto Center
Mon 07:18:51 AM 43.6000 -78.7500 280° West 420 483 36,000  Level Toronto Center
Mon 07:19:51 AM 43.6167 -78.9500 277° West 420 483 36,000  Level Toronto Center
Mon 07:20:51 AM 43.6500 -79.0833 289° West 430 495 36,000  Level Toronto Center
Mon 07:21:51 AM 43.6667 -79.2667 277° West 420 483 36,000  Level Toronto Center
Mon 07:22:51 AM 43.6833 -79.4000 280° West 420 483 36,000  Level Toronto Center
Mon 07:23:51 AM 43.7167 -79.5667 286° West 430 495 36,000  Level Toronto Center
Mon 07:24:51 AM 43.7333 -79.7333 278° West 430 495 36,000  Level Toronto Center
Mon 07:25:51 AM 43.7500 -79.8833 279° West 430 495 36,000  Level Toronto Center
Mon 07:26:51 AM 43.7833 -80.0500 286° West 420 483 36,000  Level Toronto Center
Mon 07:27:51 AM 43.8000 -80.2167 278° West 430 495 36,000  Level Toronto Center
Mon 07:28:51 AM 43.8167 -80.3667 279° West 430 495 36,000  Level Toronto Center
Mon 07:29:51 AM 43.8500 -80.5500 284° West 430 495 36,000  Level Toronto Center
Mon 07:30:51 AM 43.8667 -80.7000 279° West 430 495 36,000  Level Toronto Center
Mon 07:31:51 AM 43.8667 -80.8667 270° West 430 495 36,000  Level Toronto Center
Mon 07:32:51 AM 43.8833 -81.0167 279° West 430 495 36,000  Level Toronto Center
Mon 07:33:51 AM 43.9167 -81.1833 286° West 420 483 36,000  Level Toronto Center
Mon 07:34:51 AM 43.9333 -81.3500 278° West 420 483 36,000  Level Toronto Center
Mon 07:35:51 AM 43.9500 -81.5167 278° West 430 495 36,000  Level Toronto Center
Mon 07:36:51 AM 43.9833 -81.6667 287° West 430 495 36,000  Level Toronto Center
Mon 07:37:51 AM 44.0000 -81.8333 278° West 430 495 36,000  Level Toronto Center
Mon 07:38:51 AM 44.0000 -82.0000 270° West 430 495 36,000  Level Toronto Center
Mon 07:39:51 AM 44.0167 -82.1667 278° West 430 495 36,000  Level Toronto Center
Mon 07:40:51 AM 44.0500 -82.3167 287° West 430 495 36,000  Level Toronto Center
Mon 07:41:51 AM 44.0667 -82.4833 278° West 430 495 36,000  Level Toronto Center
Mon 07:42:51 AM 44.0833 -82.6667 277° West 430 495 36,000  Level Toronto Center
Mon 07:43:31 AM 44.1036 -82.7725 285° West 431 496 36,000  Level Minneapolis Center
Mon 07:44:32 AM 44.1228 -82.9361 279° West 430 495 36,000  Level Minneapolis Center
Mon 07:45:33 AM 44.1394 -83.1008 278° West 430 495 36,000  Level Minneapolis Center
Mon 07:46:33 AM 44.1578 -83.2678 279° West 434 499 36,000  Level Minneapolis Center
Mon 07:47:34 AM 44.1742 -83.4331 278° West 434 499 36,000  Level Minneapolis Center
Mon 07:48:35 AM 44.1906 -83.5961 278° West 428 493 36,000  Level Minneapolis Center
Mon 07:49:36 AM 44.2069 -83.7581 278° West 425 489 36,000  Level Minneapolis Center
Mon 07:50:37 AM 44.2228 -83.9203 278° West 423 487 36,000 738 Level Minneapolis Center
Mon 07:51:38 AM 44.2386 -84.0792 278° West 417 480 37,500 984 Climbing Minneapolis Center
Mon 07:52:39 AM 44.2517 -84.2278 277° West 392 451 38,000 246 Climbing Minneapolis Center
Mon 07:53:40 AM 44.2672 -84.3800 278° West 395 455 38,000  Level Minneapolis Center
Mon 07:54:40 AM 44.2844 -84.5678 277° West 407 468 38,000  Level Minneapolis Center
Mon 07:55:41 AM 44.2986 -84.7267 277° West 413 475 38,000  Level Minneapolis Center
Mon 07:56:42 AM 44.3125 -84.8897 277° West 422 486 38,000  Level Minneapolis Center
Mon 07:57:43 AM 44.3278 -85.0553 277° West 428 493 38,000  Level Minneapolis Center
Mon 07:58:44 AM 44.3428 -85.2244 277° West 437 503 38,000  Level Minneapolis Center
Mon 07:59:45 AM 44.3567 -85.3936 277° West 439 505 38,000  Level Minneapolis Center
Mon 08:00:46 AM 44.3706 -85.5642 277° West 440 506 38,000  Level Minneapolis Center
Mon 08:01:47 AM 44.3844 -85.7358 277° West 442 509 38,000  Level Minneapolis Center
Mon 08:02:48 AM 44.3986 -85.9075 277° West 443 510 38,000  Level Minneapolis Center
Mon 08:03:49 AM 44.4117 -86.0792 276° West 442 509 38,000  Level Minneapolis Center
Mon 08:04:50 AM 44.4244 -86.2503 276° West 441 507 38,000  Level Minneapolis Center
Mon 08:05:51 AM 44.4375 -86.4239 276° West 444 511 38,000  Level Minneapolis Center
Mon 08:06:52 AM 44.4497 -86.5967 276° West 445 512 38,000  Level Minneapolis Center
Mon 08:07:53 AM 44.4622 -86.7678 276° West 442 509 38,000  Level Minneapolis Center
Mon 08:08:54 AM 44.4739 -86.9392 276° West 442 509 38,000  Level Minneapolis Center
Mon 08:09:55 AM 44.4869 -87.1122 276° West 446 513 38,000  Level Minneapolis Center
Mon 08:10:57 AM 44.4983 -87.2856 275° West 446 513 38,000  Level Minneapolis Center
Mon 08:11:58 AM 44.5131 -87.4947 276° West 449 517 38,000  Level Minneapolis Center
Mon 08:12:59 AM 44.5236 -87.6689 275° West 449 517 38,000  Level Minneapolis Center
Mon 08:14:00 AM 44.5342 -87.8403 275° West 445 512 38,000  Level Minneapolis Center
Mon 08:15:01 AM 44.5442 -88.0103 275° West 440 506 38,000 -146 Level Minneapolis Center
Mon 08:16:03 AM 44.5547 -88.1817 275° West 441 507 37,700 -488 Descending Minneapolis Center
Mon 08:17:04 AM 44.5733 -88.3517 279° West 445 512 37,000 -639 Descending Minneapolis Center
Mon 08:18:05 AM 44.5928 -88.5183 279° West 437 503 36,400 -492 Descending Minneapolis Center
Mon 08:19:06 AM 44.6119 -88.6839 279° West 433 498 36,000 -195 Descending Minneapolis Center
Mon 08:20:08 AM 44.6344 -88.8800 279° West 436 502 36,000  Level Minneapolis Center
Mon 08:21:09 AM 44.6883 -89.0369 296° West 449 517 36,000 -49 Level Minneapolis Center
Mon 08:22:10 AM 44.7486 -89.1856 300° West 444 511 35,900 -400 Descending Minneapolis Center
Mon 08:23:24 AM 44.8092 -89.3364 300° West 442 509 35,100 -800 Descending Minneapolis Center
Mon 08:24:25 AM 44.8797 -89.5100 300° West 440 506 34,100 -878 Descending Minneapolis Center
Mon 08:25:27 AM 44.9389 -89.6603 299° West 440 506 33,300 -780 Descending Minneapolis Center
Mon 08:26:28 AM 45.0000 -89.8172 299° West 443 510 32,500 -634 Descending Minneapolis Center
Mon 08:27:30 AM 45.0314 -89.9869 285° West 457 526 32,000 -244 Descending Minneapolis Center
Mon 08:28:31 AM 45.0153 -90.1672 263° West 461 531 32,000  Level Minneapolis Center
Mon 08:29:32 AM 44.9983 -90.3806 264° West 457 526 32,000 -98 Level Minneapolis Center
Mon 08:30:34 AM 44.9825 -90.5497 263° West 439 505 31,800 -585 Descending Minneapolis Center
Mon 08:31:35 AM 44.9689 -90.7164 263° West 429 494 30,800 -1,024 Descending Minneapolis Center
Mon 08:32:37 AM 44.9542 -90.8767 263° West 417 480 29,700 -1,024 Descending Minneapolis Center
Mon 08:33:38 AM 44.9367 -91.0489 262° West 417 480 28,700 -976 Descending Minneapolis Center
Mon 08:34:40 AM 44.9211 -91.2083 262° West 414 476 27,700 -976 Descending Minneapolis Center
Mon 08:35:41 AM 44.9078 -91.3678 263° West 412 474 26,700 -1,561 Descending Minneapolis Center
Mon 08:36:43 AM 44.9028 -91.5253 267° West 406 467 24,500 -2,537 Descending Minneapolis Center
Mon 08:37:44 AM 44.9375 -91.6894 287° West 432 497 21,500 -2,852 Descending Minneapolis Center
Mon 08:38:45 AM 44.9656 -91.8428 285° West 412 474 18,700 -2,683 Descending Minneapolis Center
Mon 08:39:47 AM 44.9942 -91.9906 285° West 395 455 16,000 -2,878 Descending Minneapolis Center
Mon 08:40:48 AM 45.0269 -92.1636 285° West 380 437 12,800 -2,439 Descending Minneapolis Center
Mon 08:41:50 AM 45.0472 -92.3017 282° West 365 420 11,000 -1,171 Descending Minneapolis Center
Mon 08:42:51 AM 45.0272 -92.4328 258° West 340 391 10,400 -878 Descending Minneapolis Center
Mon 08:43:53 AM 45.0128 -92.5244 257° West 308 354 9,200 -1,610 Descending Minneapolis Center
Mon 08:44:54 AM 44.9542 -92.6347 233° Southwest 297 342 7,100 -1,073 Descending Minneapolis Center
Mon 08:45:56 AM 44.9053 -92.7147 229° Southwest 270 311 7,000 -244 Descending Minneapolis Center
Mon 08:46:57 AM 44.8611 -92.7861 229° Southwest 247 284 6,600 -1,073 Descending Minneapolis Center
Mon 08:47:59 AM 44.8189 -92.8550 229° Southwest 235 270 4,800 -1,805 Descending Minneapolis Center
Mon 08:49:00 AM 44.8142 -92.9531 266° West 211 243 2,900 -878 Descending Minneapolis Center
Mon 08:50:02 AM 44.8153 -93.0253 271° West 189 217 3,000 97 Climbing Minneapolis Center

Login

Don't have an account? Register now (free) for customized features, flight alerts, and more!